createdAt,value
2018-09-26T00:00:13.811Z,19.52
2018-09-26T00:02:47.578Z,19.17
2018-09-26T00:05:17.214Z,18.67
2018-09-26T00:07:45.469Z,20.08
2018-09-26T00:10:13.810Z,19.35
2018-09-26T00:12:43.155Z,18.17
2018-09-26T00:15:11.601Z,18.82
2018-09-26T00:17:40.015Z,17.55
2018-09-26T00:20:08.934Z,17.80
2018-09-26T00:22:37.166Z,17.40
2018-09-26T00:25:05.427Z,18.87
2018-09-26T00:27:34.134Z,17.37
2018-09-26T00:30:02.390Z,18.00
2018-09-26T00:32:30.701Z,17.67
2018-09-26T00:35:00.640Z,16.82
2018-09-26T00:37:29.006Z,17.30
2018-09-26T00:39:57.194Z,17.30
2018-09-26T00:42:25.583Z,17.30
2018-09-26T00:44:53.906Z,16.77
2018-09-26T00:47:22.150Z,17.40
2018-09-26T00:49:50.909Z,15.75
2018-09-26T00:52:19.270Z,16.45
2018-09-26T00:54:47.635Z,15.78
2018-09-26T00:57:16.765Z,16.17
2018-09-26T00:59:45.079Z,16.05
2018-09-26T01:02:13.466Z,16.42
2018-09-26T01:04:42.115Z,15.78
2018-09-26T01:07:10.354Z,14.70
2018-09-26T01:09:38.820Z,14.43
2018-09-26T01:12:07.117Z,15.18
2018-09-26T01:14:35.368Z,15.23
2018-09-26T01:17:03.647Z,14.13
2018-09-26T01:19:33.608Z,15.58
2018-09-26T01:22:01.846Z,14.25
2018-09-26T01:24:30.091Z,14.23
2018-09-26T01:26:58.469Z,14.47
2018-09-26T01:29:26.722Z,14.05
2018-09-26T01:31:55.058Z,13.75
2018-09-26T01:34:23.303Z,13.62
2018-09-26T01:36:52.256Z,13.43
2018-09-26T01:39:21.562Z,13.70
2018-09-26T01:41:49.801Z,13.78
2018-09-26T01:44:18.218Z,12.95
2018-09-26T01:46:46.819Z,13.05
2018-09-26T01:49:15.242Z,13.58
2018-09-26T01:51:43.574Z,14.55
2018-09-26T01:54:12.155Z,13.25
2018-09-26T01:56:40.687Z,12.33
2018-09-26T01:59:08.913Z,12.63
2018-09-26T02:01:38.117Z,12.18
2018-09-26T02:04:07.925Z,11.97
2018-09-26T02:06:36.179Z,11.65
2018-09-26T02:09:07.498Z,12.82
2018-09-26T02:11:35.837Z,12.40
2018-09-26T02:14:04.226Z,12.05
2018-09-26T02:16:33.101Z,12.25
2018-09-26T02:19:01.347Z,11.93
2018-09-26T02:21:29.646Z,11.55
2018-09-26T02:23:58.135Z,11.38
2018-09-26T02:26:26.373Z,11.05
2018-09-26T02:28:54.684Z,11.30
2018-09-26T02:31:23.369Z,12.33
2018-09-26T02:33:51.627Z,11.43
2018-09-26T02:36:19.930Z,11.48
2018-09-26T02:38:49.122Z,11.12
2018-09-26T02:41:17.452Z,10.40
2018-09-26T02:43:45.690Z,11.10
2018-09-26T02:46:14.562Z,11.60
2018-09-26T02:48:48.331Z,11.15
2018-09-26T02:51:16.749Z,10.60
2018-09-26T02:53:45.298Z,10.35
2018-09-26T02:56:13.521Z,10.80
2018-09-26T02:58:41.861Z,10.40
2018-09-26T03:01:10.147Z,10.50
2018-09-26T03:03:38.410Z,10.43
2018-09-26T03:06:07.649Z,10.25
2018-09-26T03:08:35.957Z,9.88
2018-09-26T03:11:04.362Z,10.13
2018-09-26T03:13:32.589Z,10.20
2018-09-26T03:16:00.834Z,10.40
2018-09-26T03:18:29.066Z,10.58
2018-09-26T03:20:57.453Z,10.70
2018-09-26T03:23:25.726Z,9.48
2018-09-26T03:25:54.027Z,9.58
2018-09-26T03:28:23.254Z,9.35
2018-09-26T03:30:51.500Z,10.05
2018-09-26T03:33:19.805Z,9.35
2018-09-26T03:35:48.392Z,9.93
2018-09-26T03:38:16.626Z,9.60
2018-09-26T03:40:45.850Z,9.63
2018-09-26T03:43:14.123Z,9.53
2018-09-26T03:45:42.678Z,9.43
2018-09-26T03:48:10.904Z,8.75
2018-09-26T03:50:40.417Z,9.50
2018-09-26T03:53:08.725Z,9.08
2018-09-26T03:55:37.051Z,9.35
2018-09-26T03:58:05.330Z,8.68
2018-09-26T04:00:33.573Z,9.58
2018-09-26T04:03:01.979Z,8.63
2018-09-26T04:05:30.782Z,8.30
2018-09-26T04:07:59.046Z,9.03
2018-09-26T04:10:27.288Z,9.05
2018-09-26T04:12:55.902Z,9.03
2018-09-26T04:15:24.133Z,8.28
2018-09-26T04:17:52.375Z,8.43
2018-09-26T04:20:21.008Z,8.40
2018-09-26T04:22:49.323Z,8.33
2018-09-26T04:25:17.771Z,8.28
2018-09-26T04:27:47.111Z,8.60
2018-09-26T04:30:15.405Z,7.75
2018-09-26T04:32:43.686Z,7.62
2018-09-26T04:35:12.158Z,7.42
2018-09-26T04:37:40.400Z,7.70
2018-09-26T04:40:08.638Z,7.55
2018-09-26T04:42:38.626Z,8.18
2018-09-26T04:45:06.898Z,7.30
2018-09-26T04:47:35.225Z,8.00
2018-09-26T04:50:04.075Z,7.87
2018-09-26T04:52:32.316Z,7.08
2018-09-26T04:55:00.550Z,7.35
2018-09-26T04:57:31.769Z,7.58
2018-09-26T05:00:00.152Z,8.10
2018-09-26T05:02:28.403Z,6.62
2018-09-26T05:04:58.754Z,6.50
2018-09-26T05:07:27.162Z,6.17
2018-09-26T05:09:55.486Z,6.50
2018-09-26T05:12:24.130Z,6.28
2018-09-26T05:14:52.511Z,6.03
2018-09-26T05:17:20.702Z,5.67
2018-09-26T05:19:49.542Z,5.75
2018-09-26T05:22:17.873Z,5.65
2018-09-26T05:24:46.175Z,4.70
2018-09-26T05:27:15.185Z,4.72
2018-09-26T05:29:43.424Z,4.62
2018-09-26T05:32:11.669Z,4.58
2018-09-26T05:34:40.350Z,4.25
2018-09-26T05:37:08.793Z,3.60
2018-09-26T05:39:37.222Z,3.52
2018-09-26T05:42:05.665Z,3.08
2018-09-26T05:44:36.030Z,3.25
2018-09-26T05:47:04.258Z,3.08
2018-09-26T05:49:32.521Z,3.37
2018-09-26T05:52:00.765Z,3.40
2018-09-26T05:54:29.411Z,3.05
2018-09-26T05:56:57.655Z,2.67
2018-09-26T05:59:25.929Z,2.58
2018-09-26T06:01:54.438Z,2.50
2018-09-26T06:04:22.693Z,2.67
2018-09-26T06:06:51.014Z,2.37
2018-09-26T06:09:20.499Z,2.77
2018-09-26T06:11:48.821Z,2.25
2018-09-26T06:14:17.226Z,2.58
2018-09-26T06:16:45.841Z,2.30
2018-09-26T06:19:14.166Z,2.42
2018-09-26T06:21:42.491Z,2.20
2018-09-26T06:24:10.877Z,2.30
2018-09-26T06:26:39.214Z,2.40
2018-09-26T06:29:07.502Z,2.10
2018-09-26T06:31:36.635Z,2.15
2018-09-26T06:34:04.881Z,2.00
2018-09-26T06:36:33.114Z,1.95
2018-09-26T06:39:01.674Z,2.37
2018-09-26T06:41:30.056Z,2.42
2018-09-26T06:43:58.382Z,2.20
2018-09-26T06:46:31.002Z,2.17
2018-09-26T06:48:59.266Z,1.95
2018-09-26T06:51:27.600Z,2.12
2018-09-26T06:53:56.776Z,1.98
2018-09-26T06:56:25.004Z,2.20
2018-09-26T06:58:53.255Z,2.00
2018-09-26T07:01:21.691Z,2.22
2018-09-26T07:03:49.963Z,2.02
2018-09-26T07:06:18.377Z,2.02
2018-09-26T07:08:47.246Z,2.17
2018-09-26T07:11:15.558Z,2.08
2018-09-26T07:13:43.790Z,2.02
2018-09-26T07:16:12.784Z,2.12
2018-09-26T07:18:41.030Z,1.92
2018-09-26T07:21:09.291Z,2.42
2018-09-26T07:23:37.618Z,1.98
2018-09-26T07:26:05.868Z,2.08
2018-09-26T07:28:34.090Z,1.90
2018-09-26T07:31:03.062Z,2.05
2018-09-26T07:33:31.363Z,2.08
2018-09-26T07:35:59.590Z,2.17
2018-09-26T07:38:28.319Z,2.00
2018-09-26T07:40:56.540Z,2.20
2018-09-26T07:43:24.891Z,1.80
2018-09-26T07:45:53.996Z,1.72
2018-09-26T07:48:24.106Z,2.12
2018-09-26T07:50:52.349Z,1.80
2018-09-26T07:53:20.642Z,2.05
2018-09-26T07:55:48.882Z,2.02
2018-09-26T07:58:17.270Z,2.10
2018-09-26T08:00:45.574Z,1.95
2018-09-26T08:03:13.846Z,2.17
2018-09-26T08:05:42.330Z,1.72
2018-09-26T08:08:10.569Z,2.08
2018-09-26T08:10:38.837Z,1.85
2018-09-26T08:13:08.163Z,2.05
2018-09-26T08:15:36.397Z,1.82
2018-09-26T08:18:04.675Z,2.05
2018-09-26T08:20:33.104Z,2.30
2018-09-26T08:23:01.549Z,1.82
2018-09-26T08:25:29.939Z,2.00
2018-09-26T08:27:58.314Z,2.10
2018-09-26T08:30:26.639Z,2.20
2018-09-26T08:32:55.035Z,1.65
2018-09-26T08:35:24.301Z,2.05
2018-09-26T08:37:52.601Z,2.27
2018-09-26T08:40:20.831Z,2.00
2018-09-26T08:42:49.336Z,2.08
2018-09-26T08:45:17.561Z,2.12
2018-09-26T08:47:45.782Z,2.35
2018-09-26T08:50:14.844Z,2.10
2018-09-26T08:52:43.145Z,2.00
2018-09-26T08:55:11.458Z,2.25
2018-09-26T08:57:40.324Z,2.30
2018-09-26T09:00:08.742Z,2.30
2018-09-26T09:02:37.048Z,2.10
2018-09-26T09:05:06.173Z,2.20
2018-09-26T09:07:34.403Z,2.08
2018-09-26T09:10:02.653Z,2.25
2018-09-26T09:12:31.222Z,2.17
2018-09-26T09:14:59.463Z,2.12
2018-09-26T09:17:27.920Z,2.27
2018-09-26T09:19:57.841Z,2.27
2018-09-26T09:22:26.154Z,2.20
2018-09-26T09:24:54.395Z,2.33
2018-09-26T09:27:22.967Z,2.20
2018-09-26T09:29:51.136Z,2.10
2018-09-26T09:32:19.523Z,1.95
2018-09-26T09:34:48.168Z,1.98
2018-09-26T09:37:16.410Z,2.10
2018-09-26T09:39:44.755Z,1.77
2018-09-26T09:42:14.024Z,1.80
2018-09-26T09:44:42.254Z,1.80
2018-09-26T09:47:10.504Z,1.90
2018-09-26T09:49:39.259Z,1.98
2018-09-26T09:52:07.878Z,1.75
2018-09-26T09:54:36.140Z,1.90
2018-09-26T09:57:04.603Z,1.70
2018-09-26T09:59:32.852Z,1.90
2018-09-26T10:02:01.090Z,1.98
2018-09-26T10:04:29.387Z,1.60
2018-09-26T10:06:57.718Z,1.90
2018-09-26T10:09:25.954Z,2.00
2018-09-26T10:11:54.230Z,1.75
2018-09-26T10:14:22.500Z,1.70
2018-09-26T10:16:50.688Z,2.00
2018-09-26T10:19:19.403Z,2.05
2018-09-26T10:21:47.627Z,1.80
2018-09-26T10:24:15.891Z,1.95
2018-09-26T10:26:44.846Z,2.05
2018-09-26T10:29:13.161Z,2.00
2018-09-26T10:31:41.384Z,1.98
2018-09-26T10:34:09.914Z,2.85
2018-09-26T10:36:38.138Z,2.95
2018-09-26T10:39:07.871Z,2.40
2018-09-26T10:41:36.766Z,3.52
2018-09-26T10:44:05.244Z,4.25
2018-09-26T10:46:33.613Z,7.17
2018-09-26T10:49:02.328Z,10.58
2018-09-26T10:51:30.638Z,17.50
2018-09-26T10:54:00.702Z,15.72
2018-09-26T10:56:30.389Z,17.45
2018-09-26T10:58:58.551Z,19.70
2018-09-26T11:01:26.853Z,23.18
2018-09-26T11:03:56.783Z,25.00
2018-09-26T11:06:25.098Z,24.92
2018-09-26T11:08:53.402Z,21.87
2018-09-26T11:11:22.229Z,26.23
2018-09-26T11:13:50.463Z,27.17
2018-09-26T11:16:19.063Z,23.95
2018-09-26T11:18:47.778Z,23.42
2018-09-26T11:21:16.145Z,56.13
2018-09-26T11:23:44.422Z,34.55
2018-09-26T11:26:13.028Z,86.63
2018-09-26T11:28:41.186Z,100.58
2018-09-26T11:31:09.439Z,95.12
2018-09-26T11:33:37.867Z,95.75
2018-09-26T11:36:06.106Z,93.17
2018-09-26T11:38:34.410Z,95.12
2018-09-26T11:41:03.394Z,86.15
2018-09-26T11:43:31.747Z,84.47
2018-09-26T11:46:00.047Z,81.85
2018-09-26T11:48:28.314Z,81.42
2018-09-26T11:50:56.574Z,69.45
2018-09-26T11:53:24.983Z,59.50
2018-09-26T11:55:54.022Z,56.65
2018-09-26T11:58:22.382Z,54.15
2018-09-26T12:00:51.363Z,54.27
2018-09-26T12:03:19.647Z,59.70
2018-09-26T12:05:47.992Z,60.55
2018-09-26T12:08:16.471Z,65.37
2018-09-26T12:10:44.762Z,65.67
2018-09-26T12:13:13.095Z,64.90
2018-09-26T12:15:41.827Z,67.12
2018-09-26T12:18:10.162Z,64.70
2018-09-26T12:20:38.470Z,62.70
2018-09-26T12:23:07.491Z,64.70
2018-09-26T12:25:35.756Z,59.55
2018-09-26T12:28:04.013Z,59.45
2018-09-26T12:30:32.393Z,59.08
2018-09-26T12:33:00.870Z,56.53
2018-09-26T12:35:29.206Z,57.78
2018-09-26T12:37:57.658Z,55.98
2018-09-26T12:40:26.209Z,55.60
2018-09-26T12:42:54.465Z,52.30
2018-09-26T12:45:23.610Z,47.95
2018-09-26T12:47:51.981Z,41.63
2018-09-26T12:50:20.244Z,40.67
2018-09-26T12:52:48.517Z,38.75
2018-09-26T12:55:16.770Z,37.55
2018-09-26T12:57:45.638Z,37.35
2018-09-26T13:00:14.401Z,37.35
2018-09-26T13:02:42.593Z,35.05
2018-09-26T13:05:10.858Z,37.83
2018-09-26T13:07:39.741Z,33.58
2018-09-26T13:10:08.012Z,35.10
2018-09-26T13:12:36.287Z,31.55
2018-09-26T13:15:05.307Z,31.12
2018-09-26T13:17:33.544Z,29.25
2018-09-26T13:20:01.819Z,28.00
2018-09-26T13:22:30.551Z,27.85
2018-09-26T13:24:58.795Z,25.00
2018-09-26T13:27:27.113Z,24.92
2018-09-26T13:29:55.926Z,26.57
2018-09-26T13:32:24.317Z,25.50
2018-09-26T13:34:52.490Z,25.40
2018-09-26T13:37:21.283Z,23.67
2018-09-26T13:39:49.627Z,25.75
2018-09-26T13:42:17.946Z,24.92
2018-09-26T13:44:47.986Z,24.55
2018-09-26T13:47:16.229Z,22.90
2018-09-26T13:49:44.471Z,24.18
2018-09-26T13:52:12.962Z,23.42
2018-09-26T13:54:41.186Z,21.57
2018-09-26T13:57:10.655Z,23.98
2018-09-26T13:59:39.250Z,24.47
2018-09-26T14:02:07.510Z,24.55
2018-09-26T14:04:37.474Z,24.02
2018-09-26T14:07:05.939Z,24.40
2018-09-26T14:09:34.355Z,24.35
2018-09-26T14:12:02.982Z,23.65
2018-09-26T14:14:31.515Z,22.93
2018-09-26T14:16:59.807Z,22.82
2018-09-26T14:19:28.246Z,22.42
2018-09-26T14:21:57.058Z,22.50
2018-09-26T14:24:25.308Z,22.10
2018-09-26T14:26:53.606Z,22.02
2018-09-26T14:29:21.952Z,21.73
2018-09-26T14:31:50.152Z,21.45
2018-09-26T14:34:18.398Z,20.50
2018-09-26T14:36:47.117Z,19.67
2018-09-26T14:39:15.387Z,19.77
2018-09-26T14:41:43.609Z,18.87
2018-09-26T14:44:12.601Z,19.07
2018-09-26T14:46:41.037Z,18.32
2018-09-26T14:49:09.408Z,19.90
2018-09-26T14:51:38.032Z,18.85
2018-09-26T14:54:06.322Z,18.73
2018-09-26T14:56:34.560Z,18.23
2018-09-26T14:59:03.737Z,18.32
2018-09-26T15:01:32.047Z,18.15
2018-09-26T15:04:00.343Z,18.77
2018-09-26T15:06:28.910Z,18.05
2018-09-26T15:08:57.179Z,18.07
2018-09-26T15:11:25.523Z,18.32
2018-09-26T15:13:53.806Z,17.92
2018-09-26T15:16:22.164Z,18.55
2018-09-26T15:18:50.419Z,17.25
2018-09-26T15:21:18.877Z,16.37
2018-09-26T15:23:47.127Z,15.50
2018-09-26T15:26:15.512Z,15.00
2018-09-26T15:28:44.422Z,14.75
2018-09-26T15:31:12.674Z,14.73
2018-09-26T15:33:41.047Z,16.23
2018-09-26T15:36:09.602Z,15.03
2018-09-26T15:38:38.220Z,14.50
2018-09-26T15:41:06.829Z,14.60
2018-09-26T15:43:35.726Z,14.40
2018-09-26T15:46:04.175Z,13.40
2018-09-26T15:48:32.543Z,14.47
2018-09-26T15:51:02.172Z,13.95
2018-09-26T15:53:30.439Z,14.13
2018-09-26T15:55:58.701Z,13.78
2018-09-26T15:58:27.183Z,13.62
2018-09-26T16:00:56.161Z,13.75
2018-09-26T16:03:24.423Z,13.15
2018-09-26T16:05:52.706Z,13.03
2018-09-26T16:08:21.053Z,13.20
2018-09-26T16:10:49.319Z,12.47
2018-09-26T16:13:18.341Z,12.73
2018-09-26T16:15:47.711Z,12.80
2018-09-26T16:18:16.050Z,12.35
2018-09-26T16:20:44.486Z,12.23
2018-09-26T16:23:12.747Z,12.70
2018-09-26T16:25:41.060Z,12.53
2018-09-26T16:28:09.356Z,11.63
2018-09-26T16:30:37.571Z,12.37
2018-09-26T16:33:05.926Z,11.55
2018-09-26T16:35:35.179Z,12.33
2018-09-26T16:38:03.511Z,11.22
2018-09-26T16:40:31.879Z,11.90
2018-09-26T16:43:00.510Z,11.18
2018-09-26T16:45:28.769Z,10.90
2018-09-26T16:47:57.018Z,10.90
2018-09-26T16:50:25.336Z,11.20
2018-09-26T16:52:53.646Z,10.60
2018-09-26T16:55:21.975Z,10.50
2018-09-26T16:57:50.894Z,10.13
2018-09-26T17:00:19.272Z,9.60
2018-09-26T17:02:48.403Z,11.33
2018-09-26T17:05:17.992Z,10.30
2018-09-26T17:07:46.247Z,10.53
2018-09-26T17:10:14.582Z,9.50
2018-09-26T17:12:43.318Z,10.70
2018-09-26T17:15:11.739Z,9.55
2018-09-26T17:17:40.019Z,9.43
2018-09-26T17:20:08.338Z,9.55
2018-09-26T17:22:36.662Z,9.68
2018-09-26T17:25:04.899Z,9.75
2018-09-26T17:27:34.211Z,9.30
2018-09-26T17:30:02.495Z,9.25
2018-09-26T17:32:30.792Z,8.78
2018-09-26T17:35:00.300Z,9.45
2018-09-26T17:37:28.736Z,8.33
2018-09-26T17:39:56.975Z,8.90
2018-09-26T17:42:25.603Z,8.30
2018-09-26T17:44:53.883Z,8.83
2018-09-26T17:47:22.277Z,8.78
2018-09-26T17:49:50.747Z,8.80
2018-09-26T17:52:19.082Z,9.20
2018-09-26T17:54:47.382Z,8.38
2018-09-26T17:57:15.653Z,8.45
2018-09-26T17:59:43.931Z,8.75
2018-09-26T18:02:12.235Z,9.30
2018-09-26T18:04:41.943Z,8.35
2018-09-26T18:07:10.327Z,8.98
2018-09-26T18:09:38.586Z,8.65
2018-09-26T18:12:06.945Z,8.00
2018-09-26T18:14:35.370Z,9.18
2018-09-26T18:17:03.662Z,8.48
2018-09-26T18:19:31.967Z,8.63
2018-09-26T18:22:00.227Z,8.25
2018-09-26T18:24:28.565Z,8.13
2018-09-26T18:26:57.461Z,8.65
2018-09-26T18:29:25.711Z,8.23
2018-09-26T18:31:54.024Z,8.55
2018-09-26T18:34:22.603Z,8.50
2018-09-26T18:36:50.903Z,9.10
2018-09-26T18:39:19.228Z,8.78
2018-09-26T18:41:47.744Z,7.75
2018-09-26T18:44:16.436Z,8.65
2018-09-26T18:46:44.711Z,7.72
2018-09-26T18:49:15.963Z,7.97
2018-09-26T18:51:44.229Z,8.13
2018-09-26T18:54:12.475Z,8.40
2018-09-26T18:56:41.190Z,7.87
2018-09-26T18:59:09.555Z,7.87
2018-09-26T19:01:37.811Z,7.70
2018-09-26T19:04:08.855Z,7.92
2018-09-26T19:06:38.070Z,8.23
2018-09-26T19:09:08.595Z,8.10
2018-09-26T19:11:36.980Z,8.50
2018-09-26T19:14:05.275Z,7.58
2018-09-26T19:16:34.242Z,7.50
2018-09-26T19:19:02.529Z,7.40
2018-09-26T19:21:31.148Z,7.67
2018-09-26T19:23:59.780Z,7.95
2018-09-26T19:26:28.108Z,6.85
2018-09-26T19:28:56.420Z,7.37
2018-09-26T19:31:27.117Z,8.05
2018-09-26T19:33:55.387Z,7.62
2018-09-26T19:36:23.721Z,7.50
2018-09-26T19:38:52.961Z,6.50
2018-09-26T19:41:21.223Z,6.75
2018-09-26T19:43:49.539Z,7.22
2018-09-26T19:46:17.891Z,6.78
2018-09-26T19:48:46.176Z,7.15
2018-09-26T19:51:14.542Z,7.10
2018-09-26T19:53:42.944Z,6.67
2018-09-26T19:56:11.305Z,7.20
2018-09-26T19:58:39.481Z,6.55
2018-09-26T20:01:08.963Z,6.70
2018-09-26T20:03:39.244Z,6.55
2018-09-26T20:06:07.700Z,6.37
2018-09-26T20:08:36.642Z,6.75
2018-09-26T20:11:04.886Z,6.65
2018-09-26T20:13:33.132Z,7.10
2018-09-26T20:16:01.469Z,6.50
2018-09-26T20:18:29.807Z,6.28
2018-09-26T20:20:58.064Z,7.05
2018-09-26T20:23:27.173Z,6.53
2018-09-26T20:25:55.319Z,6.25
2018-09-26T20:28:23.582Z,6.72
2018-09-26T20:30:51.954Z,6.17
2018-09-26T20:33:20.212Z,5.75
2018-09-26T20:35:48.564Z,6.42
2018-09-26T20:38:17.153Z,6.03
2018-09-26T20:40:45.416Z,5.78
2018-09-26T20:43:13.758Z,5.67
2018-09-26T20:45:42.765Z,5.53
2018-09-26T20:48:11.039Z,6.10
2018-09-26T20:50:39.293Z,6.30
2018-09-26T20:53:07.776Z,5.95
2018-09-26T20:55:36.051Z,5.50
2018-09-26T20:58:04.341Z,5.55
2018-09-26T21:00:32.741Z,5.45
2018-09-26T21:03:00.968Z,5.03
2018-09-26T21:05:30.143Z,6.25
2018-09-26T21:07:59.005Z,5.83
2018-09-26T21:10:27.337Z,5.12
2018-09-26T21:12:55.571Z,5.65
2018-09-26T21:15:24.354Z,5.37
2018-09-26T21:17:52.690Z,4.90
2018-09-26T21:20:21.896Z,5.40
2018-09-26T21:22:50.518Z,5.00
2018-09-26T21:25:18.778Z,5.15
2018-09-26T21:27:47.133Z,4.95
2018-09-26T21:30:15.478Z,5.22
2018-09-26T21:32:43.735Z,4.72
2018-09-26T21:35:12.071Z,5.45
2018-09-26T21:37:40.330Z,5.05
2018-09-26T21:40:08.587Z,4.22
2018-09-26T21:42:37.958Z,5.12
2018-09-26T21:45:06.594Z,4.95
2018-09-26T21:47:34.840Z,4.45
2018-09-26T21:50:03.168Z,4.60
2018-09-26T21:52:31.390Z,4.33
2018-09-26T21:54:59.664Z,4.58
2018-09-26T21:57:28.192Z,4.70
2018-09-26T21:59:56.678Z,3.70
2018-09-26T22:02:25.015Z,4.00
2018-09-26T22:04:53.879Z,4.60
2018-09-26T22:07:22.593Z,4.50
2018-09-26T22:09:50.838Z,4.30
2018-09-26T22:12:19.731Z,4.30
2018-09-26T22:14:47.983Z,3.67
2018-09-26T22:17:16.214Z,4.28
2018-09-26T22:19:44.879Z,4.25
2018-09-26T22:22:13.125Z,3.85
2018-09-26T22:24:41.379Z,3.92
2018-09-26T22:27:10.330Z,3.80
2018-09-26T22:29:38.577Z,3.75
2018-09-26T22:32:07.022Z,3.90
2018-09-26T22:34:35.319Z,3.67
2018-09-26T22:37:03.577Z,3.58
2018-09-26T22:39:31.894Z,3.70
2018-09-26T22:42:00.386Z,3.87
2018-09-26T22:44:28.624Z,4.45
2018-09-26T22:46:56.866Z,3.70
2018-09-26T22:49:25.524Z,3.52
2018-09-26T22:51:53.777Z,3.92
2018-09-26T22:54:22.168Z,3.85
2018-09-26T22:56:50.465Z,3.83
2018-09-26T22:59:18.701Z,3.50
2018-09-26T23:01:46.930Z,3.60
2018-09-26T23:04:17.257Z,3.45
2018-09-26T23:06:45.526Z,3.50
2018-09-26T23:09:14.323Z,3.62
2018-09-26T23:11:42.970Z,3.33
2018-09-26T23:14:11.299Z,3.25
2018-09-26T23:16:39.553Z,3.40
2018-09-26T23:19:08.026Z,3.62
2018-09-26T23:21:36.282Z,3.40
2018-09-26T23:24:04.542Z,3.50
2018-09-26T23:26:36.238Z,2.98
2018-09-26T23:29:04.510Z,3.87
2018-09-26T23:31:32.755Z,3.30
2018-09-26T23:34:01.375Z,3.45
2018-09-26T23:36:29.621Z,2.80
2018-09-26T23:38:57.863Z,3.33
2018-09-26T23:41:26.397Z,3.37
2018-09-26T23:43:54.747Z,3.30
2018-09-26T23:46:22.990Z,3.05
2018-09-26T23:48:51.642Z,3.30
2018-09-26T23:51:19.874Z,3.00
2018-09-26T23:53:48.198Z,3.20
2018-09-26T23:56:17.191Z,3.02
2018-09-26T23:58:45.522Z,3.02
